sensor_id;sensor_type;location;lat;lon;timestamp;temperature;humidity
20487;DHT22;10402;49.012;8.370;2022-12-18T00:00:27;-5.10;90.50
20487;DHT22;10402;49.012;8.370;2022-12-18T00:02:52;-5.10;90.40
20487;DHT22;10402;49.012;8.370;2022-12-18T00:05:18;-5.10;90.40
20487;DHT22;10402;49.012;8.370;2022-12-18T00:07:44;-5.10;90.30
20487;DHT22;10402;49.012;8.370;2022-12-18T00:10:09;-5.10;90.30
20487;DHT22;10402;49.012;8.370;2022-12-18T00:12:35;-5.10;90.40
20487;DHT22;10402;49.012;8.370;2022-12-18T00:15:00;-5.10;90.50
20487;DHT22;10402;49.012;8.370;2022-12-18T00:17:26;-5.10;90.30
20487;DHT22;10402;49.012;8.370;2022-12-18T00:19:51;-5.10;90.20
20487;DHT22;10402;49.012;8.370;2022-12-18T00:22:17;-5.10;90.20
20487;DHT22;10402;49.012;8.370;2022-12-18T00:24:42;-5.10;90.30
20487;DHT22;10402;49.012;8.370;2022-12-18T00:27:08;-5.10;90.30
20487;DHT22;10402;49.012;8.370;2022-12-18T00:29:33;-5.10;90.40
20487;DHT22;10402;49.012;8.370;2022-12-18T00:31:59;-5.10;90.40
20487;DHT22;10402;49.012;8.370;2022-12-18T00:34:25;-5.00;90.30
20487;DHT22;10402;49.012;8.370;2022-12-18T00:36:50;-5.00;90.30
20487;DHT22;10402;49.012;8.370;2022-12-18T00:39:16;-5.00;90.30
20487;DHT22;10402;49.012;8.370;2022-12-18T00:41:41;-4.90;90.20
20487;DHT22;10402;49.012;8.370;2022-12-18T00:44:25;-4.90;90.20
20487;DHT22;10402;49.012;8.370;2022-12-18T00:46:51;-4.90;90.20
20487;DHT22;10402;49.012;8.370;2022-12-18T00:49:18;-4.90;90.10
20487;DHT22;10402;49.012;8.370;2022-12-18T00:51:43;-5.00;90.00
20487;DHT22;10402;49.012;8.370;2022-12-18T00:54:09;-5.00;90.00
20487;DHT22;10402;49.012;8.370;2022-12-18T00:56:37;-5.00;90.00
20487;DHT22;10402;49.012;8.370;2022-12-18T00:59:02;-5.00;90.00
20487;DHT22;10402;49.012;8.370;2022-12-18T01:01:28;-5.00;89.90
20487;DHT22;10402;49.012;8.370;2022-12-18T01:03:54;-5.00;89.70
20487;DHT22;10402;49.012;8.370;2022-12-18T01:06:19;-5.10;89.80
20487;DHT22;10402;49.012;8.370;2022-12-18T01:08:45;-5.20;89.70
20487;DHT22;10402;49.012;8.370;2022-12-18T01:11:13;-5.20;90.00
20487;DHT22;10402;49.012;8.370;2022-12-18T01:13:40;-5.30;90.20
20487;DHT22;10402;49.012;8.370;2022-12-18T01:16:06;-5.20;90.10
20487;DHT22;10402;49.012;8.370;2022-12-18T01:18:31;-5.20;90.10
20487;DHT22;10402;49.012;8.370;2022-12-18T01:20:57;-5.20;90.00
20487;DHT22;10402;49.012;8.370;2022-12-18T01:23:23;-5.20;90.10
20487;DHT22;10402;49.012;8.370;2022-12-18T01:25:52;-5.30;90.00
20487;DHT22;10402;49.012;8.370;2022-12-18T01:28:17;-5.30;90.00
20487;DHT22;10402;49.012;8.370;2022-12-18T01:30:43;-5.30;90.00
20487;DHT22;10402;49.012;8.370;2022-12-18T01:33:09;-5.30;90.00
20487;DHT22;10402;49.012;8.370;2022-12-18T01:35:40;-5.30;90.20
20487;DHT22;10402;49.012;8.370;2022-12-18T01:38:06;-5.30;90.10
20487;DHT22;10402;49.012;8.370;2022-12-18T01:40:31;-5.40;90.00
20487;DHT22;10402;49.012;8.370;2022-12-18T01:42:57;-5.30;90.10
20487;DHT22;10402;49.012;8.370;2022-12-18T01:45:28;-5.30;90.20
20487;DHT22;10402;49.012;8.370;2022-12-18T01:48:00;-5.30;90.10
20487;DHT22;10402;49.012;8.370;2022-12-18T01:50:45;-5.30;90.00
20487;DHT22;10402;49.012;8.370;2022-12-18T01:53:20;-5.30;90.00
20487;DHT22;10402;49.012;8.370;2022-12-18T01:56:04;-5.40;89.70
20487;DHT22;10402;49.012;8.370;2022-12-18T01:58:40;-5.40;89.90
20487;DHT22;10402;49.012;8.370;2022-12-18T02:01:06;-5.40;90.00
20487;DHT22;10402;49.012;8.370;2022-12-18T02:03:32;-5.40;90.10
20487;DHT22;10402;49.012;8.370;2022-12-18T02:08:39;-5.40;90.10
20487;DHT22;10402;49.012;8.370;2022-12-18T02:16:49;-5.40;90.20
20487;DHT22;10402;49.012;8.370;2022-12-18T02:19:37;-5.40;90.00
20487;DHT22;10402;49.012;8.370;2022-12-18T02:24:51;-5.30;90.30
20487;DHT22;10402;49.012;8.370;2022-12-18T02:27:19;-5.30;90.20
20487;DHT22;10402;49.012;8.370;2022-12-18T02:29:51;-5.20;90.10
20487;DHT22;10402;49.012;8.370;2022-12-18T02:32:42;-5.20;90.00
20487;DHT22;10402;49.012;8.370;2022-12-18T02:35:10;-5.10;90.10
20487;DHT22;10402;49.012;8.370;2022-12-18T02:37:39;-5.10;89.90
20487;DHT22;10402;49.012;8.370;2022-12-18T02:40:06;-5.10;90.00
20487;DHT22;10402;49.012;8.370;2022-12-18T02:42:33;-5.00;90.00
20487;DHT22;10402;49.012;8.370;2022-12-18T02:44:59;-5.00;90.00
20487;DHT22;10402;49.012;8.370;2022-12-18T02:47:29;-5.00;89.70
20487;DHT22;10402;49.012;8.370;2022-12-18T02:55:42;-4.90;89.90
20487;DHT22;10402;49.012;8.370;2022-12-18T02:58:30;-4.80;89.80
20487;DHT22;10402;49.012;8.370;2022-12-18T03:03:40;-4.90;89.30
20487;DHT22;10402;49.012;8.370;2022-12-18T03:06:12;-4.90;89.40
20487;DHT22;10402;49.012;8.370;2022-12-18T03:08:43;-4.90;89.20
20487;DHT22;10402;49.012;8.370;2022-12-18T03:11:12;-4.90;89.70
20487;DHT22;10402;49.012;8.370;2022-12-18T03:13:43;-4.90;89.70
20487;DHT22;10402;49.012;8.370;2022-12-18T03:16:12;-4.90;89.70
20487;DHT22;10402;49.012;8.370;2022-12-18T03:18:47;-4.80;89.80
20487;DHT22;10402;49.012;8.370;2022-12-18T03:21:18;-4.80;89.70
20487;DHT22;10402;49.012;8.370;2022-12-18T03:23:48;-4.80;89.30
20487;DHT22;10402;49.012;8.370;2022-12-18T03:26:16;-4.80;89.30
20487;DHT22;10402;49.012;8.370;2022-12-18T03:28:50;-4.80;89.40
20487;DHT22;10402;49.012;8.370;2022-12-18T03:31:16;-4.80;89.40
20487;DHT22;10402;49.012;8.370;2022-12-18T03:33:54;-4.80;89.40
20487;DHT22;10402;49.012;8.370;2022-12-18T03:36:20;-4.80;89.30
20487;DHT22;10402;49.012;8.370;2022-12-18T03:38:46;-4.70;89.40
20487;DHT22;10402;49.012;8.370;2022-12-18T03:49:26;-4.80;89.30
20487;DHT22;10402;49.012;8.370;2022-12-18T03:52:07;-4.80;89.30
20487;DHT22;10402;49.012;8.370;2022-12-18T03:54:35;-4.80;89.10
20487;DHT22;10402;49.012;8.370;2022-12-18T03:57:06;-4.90;89.00
20487;DHT22;10402;49.012;8.370;2022-12-18T03:59:33;-4.90;89.00
20487;DHT22;10402;49.012;8.370;2022-12-18T04:02:00;-4.90;89.00
20487;DHT22;10402;49.012;8.370;2022-12-18T04:04:27;-4.90;89.10
20487;DHT22;10402;49.012;8.370;2022-12-18T04:06:54;-5.00;88.90
20487;DHT22;10402;49.012;8.370;2022-12-18T04:09:20;-5.00;88.90
20487;DHT22;10402;49.012;8.370;2022-12-18T04:11:47;-5.00;88.90
20487;DHT22;10402;49.012;8.370;2022-12-18T04:14:13;-5.00;88.90
20487;DHT22;10402;49.012;8.370;2022-12-18T04:16:39;-5.00;88.80
20487;DHT22;10402;49.012;8.370;2022-12-18T04:19:05;-5.00;89.00
20487;DHT22;10402;49.012;8.370;2022-12-18T04:21:30;-5.00;88.80
20487;DHT22;10402;49.012;8.370;2022-12-18T04:23:56;-5.00;88.80
20487;DHT22;10402;49.012;8.370;2022-12-18T04:26:22;-5.10;88.60
20487;DHT22;10402;49.012;8.370;2022-12-18T04:28:47;-5.10;88.60
20487;DHT22;10402;49.012;8.370;2022-12-18T04:31:13;-5.10;88.60
20487;DHT22;10402;49.012;8.370;2022-12-18T04:33:38;-5.10;88.60
20487;DHT22;10402;49.012;8.370;2022-12-18T04:36:04;-5.10;88.60
20487;DHT22;10402;49.012;8.370;2022-12-18T04:38:30;-5.10;89.20
20487;DHT22;10402;49.012;8.370;2022-12-18T04:40:56;-5.10;88.50
20487;DHT22;10402;49.012;8.370;2022-12-18T04:43:21;-5.10;88.50
20487;DHT22;10402;49.012;8.370;2022-12-18T04:45:47;-5.10;88.50
20487;DHT22;10402;49.012;8.370;2022-12-18T04:48:12;-5.20;88.40
20487;DHT22;10402;49.012;8.370;2022-12-18T04:50:38;-5.20;88.50
20487;DHT22;10402;49.012;8.370;2022-12-18T04:53:03;-5.20;88.50
20487;DHT22;10402;49.012;8.370;2022-12-18T04:55:29;-5.20;88.50
20487;DHT22;10402;49.012;8.370;2022-12-18T04:57:55;-5.20;88.40
20487;DHT22;10402;49.012;8.370;2022-12-18T05:00:20;-5.20;88.60
20487;DHT22;10402;49.012;8.370;2022-12-18T05:02:46;-5.20;88.80
20487;DHT22;10402;49.012;8.370;2022-12-18T05:05:12;-5.20;88.80
20487;DHT22;10402;49.012;8.370;2022-12-18T05:07:37;-5.10;88.80
20487;DHT22;10402;49.012;8.370;2022-12-18T05:10:03;-5.10;88.90
20487;DHT22;10402;49.012;8.370;2022-12-18T05:12:30;-5.10;88.70
20487;DHT22;10402;49.012;8.370;2022-12-18T05:14:56;-5.10;88.70
20487;DHT22;10402;49.012;8.370;2022-12-18T05:17:22;-5.10;88.80
20487;DHT22;10402;49.012;8.370;2022-12-18T05:19:47;-5.10;88.80
20487;DHT22;10402;49.012;8.370;2022-12-18T05:22:13;-5.10;88.80
20487;DHT22;10402;49.012;8.370;2022-12-18T05:24:38;-5.00;89.10
20487;DHT22;10402;49.012;8.370;2022-12-18T05:27:04;-5.00;89.10
20487;DHT22;10402;49.012;8.370;2022-12-18T05:29:29;-5.00;89.00
20487;DHT22;10402;49.012;8.370;2022-12-18T05:31:55;-5.00;88.90
20487;DHT22;10402;49.012;8.370;2022-12-18T05:34:20;-5.00;89.10
20487;DHT22;10402;49.012;8.370;2022-12-18T05:36:46;-4.90;89.20
20487;DHT22;10402;49.012;8.370;2022-12-18T05:39:11;-4.90;89.00
20487;DHT22;10402;49.012;8.370;2022-12-18T05:41:37;-4.90;89.00
20487;DHT22;10402;49.012;8.370;2022-12-18T05:44:03;-4.90;89.00
20487;DHT22;10402;49.012;8.370;2022-12-18T05:46:29;-4.90;89.20
20487;DHT22;10402;49.012;8.370;2022-12-18T05:48:55;-4.80;89.30
20487;DHT22;10402;49.012;8.370;2022-12-18T05:51:21;-4.80;89.20
20487;DHT22;10402;49.012;8.370;2022-12-18T05:53:47;-4.70;89.40
20487;DHT22;10402;49.012;8.370;2022-12-18T05:56:15;-4.70;89.10
20487;DHT22;10402;49.012;8.370;2022-12-18T05:58:42;-4.70;89.00
20487;DHT22;10402;49.012;8.370;2022-12-18T06:01:14;-4.60;89.20
20487;DHT22;10402;49.012;8.370;2022-12-18T06:03:40;-4.60;89.00
20487;DHT22;10402;49.012;8.370;2022-12-18T06:06:17;-4.60;89.00
20487;DHT22;10402;49.012;8.370;2022-12-18T06:08:44;-4.60;89.00
20487;DHT22;10402;49.012;8.370;2022-12-18T06:11:09;-4.50;89.00
20487;DHT22;10402;49.012;8.370;2022-12-18T06:13:35;-4.50;89.00
20487;DHT22;10402;49.012;8.370;2022-12-18T06:16:07;-4.50;89.00
20487;DHT22;10402;49.012;8.370;2022-12-18T06:18:33;-4.40;89.10
20487;DHT22;10402;49.012;8.370;2022-12-18T06:20:59;-4.40;89.00
20487;DHT22;10402;49.012;8.370;2022-12-18T06:23:25;-4.40;89.00
20487;DHT22;10402;49.012;8.370;2022-12-18T06:25:51;-4.40;89.00
20487;DHT22;10402;49.012;8.370;2022-12-18T06:28:16;-4.40;89.00
20487;DHT22;10402;49.012;8.370;2022-12-18T06:30:46;-4.30;89.00
20487;DHT22;10402;49.012;8.370;2022-12-18T06:33:13;-4.30;89.00
20487;DHT22;10402;49.012;8.370;2022-12-18T06:35:39;-4.30;89.00
20487;DHT22;10402;49.012;8.370;2022-12-18T06:38:05;-4.30;89.60
20487;DHT22;10402;49.012;8.370;2022-12-18T06:40:31;-4.30;88.90
20487;DHT22;10402;49.012;8.370;2022-12-18T06:42:56;-4.20;89.00
20487;DHT22;10402;49.012;8.370;2022-12-18T06:45:22;-4.20;89.10
20487;DHT22;10402;49.012;8.370;2022-12-18T06:47:47;-4.20;89.00
20487;DHT22;10402;49.012;8.370;2022-12-18T06:50:13;-4.20;89.10
20487;DHT22;10402;49.012;8.370;2022-12-18T06:52:39;-4.20;89.20
20487;DHT22;10402;49.012;8.370;2022-12-18T06:55:09;-4.10;89.30
20487;DHT22;10402;49.012;8.370;2022-12-18T06:57:34;-4.10;89.20
20487;DHT22;10402;49.012;8.370;2022-12-18T07:00:00;-4.10;89.20
20487;DHT22;10402;49.012;8.370;2022-12-18T07:02:26;-4.10;89.30
20487;DHT22;10402;49.012;8.370;2022-12-18T07:04:51;-4.10;89.20
20487;DHT22;10402;49.012;8.370;2022-12-18T07:07:17;-4.10;89.00
20487;DHT22;10402;49.012;8.370;2022-12-18T07:09:43;-4.10;89.00
20487;DHT22;10402;49.012;8.370;2022-12-18T07:12:08;-4.10;89.40
20487;DHT22;10402;49.012;8.370;2022-12-18T07:14:34;-4.10;89.30
20487;DHT22;10402;49.012;8.370;2022-12-18T07:16:59;-4.00;89.30
20487;DHT22;10402;49.012;8.370;2022-12-18T07:19:25;-4.10;89.20
20487;DHT22;10402;49.012;8.370;2022-12-18T07:21:51;-4.10;89.20
20487;DHT22;10402;49.012;8.370;2022-12-18T07:24:17;-4.00;89.40
20487;DHT22;10402;49.012;8.370;2022-12-18T07:26:45;-4.00;89.40
20487;DHT22;10402;49.012;8.370;2022-12-18T07:29:10;-4.00;89.40
20487;DHT22;10402;49.012;8.370;2022-12-18T07:31:36;-4.10;89.00
20487;DHT22;10402;49.012;8.370;2022-12-18T07:34:01;-4.10;89.30
20487;DHT22;10402;49.012;8.370;2022-12-18T07:36:27;-4.10;89.50
20487;DHT22;10402;49.012;8.370;2022-12-18T07:38:52;-4.00;89.60
20487;DHT22;10402;49.012;8.370;2022-12-18T07:41:18;-4.10;89.30
20487;DHT22;10402;49.012;8.370;2022-12-18T07:43:44;-4.10;89.50
20487;DHT22;10402;49.012;8.370;2022-12-18T07:46:11;-4.10;89.50
20487;DHT22;10402;49.012;8.370;2022-12-18T07:48:39;-4.10;89.70
20487;DHT22;10402;49.012;8.370;2022-12-18T07:51:05;-4.00;89.90
20487;DHT22;10402;49.012;8.370;2022-12-18T07:53:32;-4.00;89.90
20487;DHT22;10402;49.012;8.370;2022-12-18T07:56:03;-4.00;90.00
20487;DHT22;10402;49.012;8.370;2022-12-18T07:58:30;-3.90;90.00
20487;DHT22;10402;49.012;8.370;2022-12-18T08:01:22;-3.90;89.90
20487;DHT22;10402;49.012;8.370;2022-12-18T08:03:47;-3.90;89.80
20487;DHT22;10402;49.012;8.370;2022-12-18T08:06:13;-3.80;89.70
20487;DHT22;10402;49.012;8.370;2022-12-18T08:08:38;-3.80;89.60
20487;DHT22;10402;49.012;8.370;2022-12-18T08:11:06;-3.80;89.90
20487;DHT22;10402;49.012;8.370;2022-12-18T08:13:32;-3.80;89.60
20487;DHT22;10402;49.012;8.370;2022-12-18T08:16:02;-3.90;89.80
20487;DHT22;10402;49.012;8.370;2022-12-18T08:18:29;-3.80;90.00
20487;DHT22;10402;49.012;8.370;2022-12-18T08:20:55;-3.80;89.90
20487;DHT22;10402;49.012;8.370;2022-12-18T08:23:21;-3.80;89.80
20487;DHT22;10402;49.012;8.370;2022-12-18T08:25:47;-3.80;89.70
20487;DHT22;10402;49.012;8.370;2022-12-18T08:28:13;-3.70;89.80
20487;DHT22;10402;49.012;8.370;2022-12-18T08:30:41;-3.70;89.70
20487;DHT22;10402;49.012;8.370;2022-12-18T08:33:07;-3.70;89.60
20487;DHT22;10402;49.012;8.370;2022-12-18T08:35:36;-3.80;89.30
20487;DHT22;10402;49.012;8.370;2022-12-18T08:38:02;-4.00;88.80
20487;DHT22;10402;49.012;8.370;2022-12-18T08:40:27;-4.10;89.40
20487;DHT22;10402;49.012;8.370;2022-12-18T08:42:53;-4.10;90.00
20487;DHT22;10402;49.012;8.370;2022-12-18T08:45:37;-4.10;90.10
20487;DHT22;10402;49.012;8.370;2022-12-18T08:48:02;-4.10;90.10
20487;DHT22;10402;49.012;8.370;2022-12-18T08:50:28;-4.10;90.20
20487;DHT22;10402;49.012;8.370;2022-12-18T08:52:54;-4.00;90.40
20487;DHT22;10402;49.012;8.370;2022-12-18T08:55:31;-3.90;90.30
20487;DHT22;10402;49.012;8.370;2022-12-18T08:57:57;-3.80;90.30
20487;DHT22;10402;49.012;8.370;2022-12-18T09:00:22;-3.80;90.10
20487;DHT22;10402;49.012;8.370;2022-12-18T09:02:48;-3.80;90.00
20487;DHT22;10402;49.012;8.370;2022-12-18T09:05:14;-3.80;90.00
20487;DHT22;10402;49.012;8.370;2022-12-18T09:07:39;-3.80;90.00
20487;DHT22;10402;49.012;8.370;2022-12-18T09:10:05;-3.80;90.10
20487;DHT22;10402;49.012;8.370;2022-12-18T09:12:31;-3.70;90.10
20487;DHT22;10402;49.012;8.370;2022-12-18T09:14:57;-3.70;90.10
20487;DHT22;10402;49.012;8.370;2022-12-18T09:17:22;-3.60;90.10
20487;DHT22;10402;49.012;8.370;2022-12-18T09:19:48;-3.60;90.40
20487;DHT22;10402;49.012;8.370;2022-12-18T09:22:14;-3.60;90.00
20487;DHT22;10402;49.012;8.370;2022-12-18T09:24:40;-3.60;90.00
20487;DHT22;10402;49.012;8.370;2022-12-18T09:27:05;-3.50;90.00
20487;DHT22;10402;49.012;8.370;2022-12-18T09:29:32;-3.50;90.00
20487;DHT22;10402;49.012;8.370;2022-12-18T09:31:57;-3.50;89.90
20487;DHT22;10402;49.012;8.370;2022-12-18T09:34:23;-3.50;89.70
20487;DHT22;10402;49.012;8.370;2022-12-18T09:36:48;-3.60;89.80
20487;DHT22;10402;49.012;8.370;2022-12-18T09:39:14;-3.70;90.00
20487;DHT22;10402;49.012;8.370;2022-12-18T09:47:13;-3.70;89.70
20487;DHT22;10402;49.012;8.370;2022-12-18T09:49:43;-3.70;90.00
20487;DHT22;10402;49.012;8.370;2022-12-18T09:52:23;-3.70;90.10
20487;DHT22;10402;49.012;8.370;2022-12-18T09:54:58;-3.70;90.00
20487;DHT22;10402;49.012;8.370;2022-12-18T09:57:25;-3.80;89.90
20487;DHT22;10402;49.012;8.370;2022-12-18T10:00:03;-3.80;90.00
20487;DHT22;10402;49.012;8.370;2022-12-18T10:02:31;-3.80;90.10
20487;DHT22;10402;49.012;8.370;2022-12-18T10:05:12;-3.70;90.20
20487;DHT22;10402;49.012;8.370;2022-12-18T10:07:49;-3.70;90.10
20487;DHT22;10402;49.012;8.370;2022-12-18T10:15:32;-3.50;90.20
20487;DHT22;10402;49.012;8.370;2022-12-18T10:20:53;-3.30;90.30
20487;DHT22;10402;49.012;8.370;2022-12-18T10:23:37;-3.20;90.20
20487;DHT22;10402;49.012;8.370;2022-12-18T10:26:10;-3.10;90.10
20487;DHT22;10402;49.012;8.370;2022-12-18T10:28:37;-3.10;90.00
20487;DHT22;10402;49.012;8.370;2022-12-18T10:31:16;-3.00;90.10
20487;DHT22;10402;49.012;8.370;2022-12-18T10:33:42;-3.00;90.00
20487;DHT22;10402;49.012;8.370;2022-12-18T10:36:08;-3.00;90.00
20487;DHT22;10402;49.012;8.370;2022-12-18T10:38:34;-3.00;90.00
20487;DHT22;10402;49.012;8.370;2022-12-18T10:41:06;-3.00;90.00
20487;DHT22;10402;49.012;8.370;2022-12-18T10:43:39;-3.00;90.00
20487;DHT22;10402;49.012;8.370;2022-12-18T10:48:57;-2.90;90.10
20487;DHT22;10402;49.012;8.370;2022-12-18T10:51:30;-2.90;90.10
20487;DHT22;10402;49.012;8.370;2022-12-18T10:54:18;-2.90;90.10
20487;DHT22;10402;49.012;8.370;2022-12-18T10:56:44;-2.80;90.10
20487;DHT22;10402;49.012;8.370;2022-12-18T10:59:12;-2.80;90.10
20487;DHT22;10402;49.012;8.370;2022-12-18T11:01:56;-2.80;90.10
20487;DHT22;10402;49.012;8.370;2022-12-18T11:04:24;-2.80;90.10
20487;DHT22;10402;49.012;8.370;2022-12-18T11:07:04;-2.90;89.50
20487;DHT22;10402;49.012;8.370;2022-12-18T11:09:32;-3.10;89.50
20487;DHT22;10402;49.012;8.370;2022-12-18T11:12:00;-3.20;90.00
20487;DHT22;10402;49.012;8.370;2022-12-18T11:14:31;-3.30;90.10
20487;DHT22;10402;49.012;8.370;2022-12-18T11:16:59;-3.30;90.30
20487;DHT22;10402;49.012;8.370;2022-12-18T11:19:34;-3.30;90.50
20487;DHT22;10402;49.012;8.370;2022-12-18T11:22:03;-3.20;90.50
20487;DHT22;10402;49.012;8.370;2022-12-18T11:24:35;-3.20;90.60
20487;DHT22;10402;49.012;8.370;2022-12-18T11:27:03;-3.10;90.50
20487;DHT22;10402;49.012;8.370;2022-12-18T11:29:36;-3.00;90.50
20487;DHT22;10402;49.012;8.370;2022-12-18T11:32:27;-3.00;90.50
20487;DHT22;10402;49.012;8.370;2022-12-18T11:35:03;-2.90;90.50
20487;DHT22;10402;49.012;8.370;2022-12-18T11:37:31;-2.90;90.40
20487;DHT22;10402;49.012;8.370;2022-12-18T11:40:19;-2.80;90.40
20487;DHT22;10402;49.012;8.370;2022-12-18T11:43:06;-2.70;90.30
20487;DHT22;10402;49.012;8.370;2022-12-18T11:45:40;-2.70;90.30
20487;DHT22;10402;49.012;8.370;2022-12-18T11:48:14;-2.70;90.30
20487;DHT22;10402;49.012;8.370;2022-12-18T11:50:50;-2.60;90.30
20487;DHT22;10402;49.012;8.370;2022-12-18T11:53:17;-2.60;90.30
20487;DHT22;10402;49.012;8.370;2022-12-18T12:03:51;-2.50;90.10
20487;DHT22;10402;49.012;8.370;2022-12-18T12:09:44;-2.50;89.90
20487;DHT22;10402;49.012;8.370;2022-12-18T12:12:28;-2.60;90.00
20487;DHT22;10402;49.012;8.370;2022-12-18T12:15:13;-2.60;90.00
20487;DHT22;10402;49.012;8.370;2022-12-18T12:18:04;-2.60;90.00
20487;DHT22;10402;49.012;8.370;2022-12-18T12:20:39;-2.60;90.00
20487;DHT22;10402;49.012;8.370;2022-12-18T12:29:04;-2.60;90.10
20487;DHT22;10402;49.012;8.370;2022-12-18T12:40:00;-2.70;90.00
20487;DHT22;10402;49.012;8.370;2022-12-18T12:42:31;-2.80;89.70
20487;DHT22;10402;49.012;8.370;2022-12-18T12:45:23;-2.90;90.00
20487;DHT22;10402;49.012;8.370;2022-12-18T12:47:52;-2.90;90.10
20487;DHT22;10402;49.012;8.370;2022-12-18T12:50:20;-2.80;90.70
20487;DHT22;10402;49.012;8.370;2022-12-18T12:52:52;-2.80;90.40
20487;DHT22;10402;49.012;8.370;2022-12-18T12:55:22;-2.70;90.40
20487;DHT22;10402;49.012;8.370;2022-12-18T12:58:15;-2.70;90.30
20487;DHT22;10402;49.012;8.370;2022-12-18T13:01:05;-2.60;90.30
20487;DHT22;10402;49.012;8.370;2022-12-18T13:03:53;-2.50;90.30
20487;DHT22;10402;49.012;8.370;2022-12-18T13:06:41;-2.50;90.30
20487;DHT22;10402;49.012;8.370;2022-12-18T13:09:08;-2.40;90.30
20487;DHT22;10402;49.012;8.370;2022-12-18T13:11:47;-2.30;90.10
20487;DHT22;10402;49.012;8.370;2022-12-18T13:14:37;-2.30;90.00
20487;DHT22;10402;49.012;8.370;2022-12-18T13:19:41;-2.30;90.00
20487;DHT22;10402;49.012;8.370;2022-12-18T13:22:29;-2.30;90.00
20487;DHT22;10402;49.012;8.370;2022-12-18T13:24:55;-2.40;90.00
20487;DHT22;10402;49.012;8.370;2022-12-18T13:36:00;-2.40;90.10
20487;DHT22;10402;49.012;8.370;2022-12-18T13:38:37;-2.50;90.20
20487;DHT22;10402;49.012;8.370;2022-12-18T13:43:46;-2.40;90.30
20487;DHT22;10402;49.012;8.370;2022-12-18T13:49:01;-2.30;90.30
20487;DHT22;10402;49.012;8.370;2022-12-18T13:51:28;-2.20;90.30
20487;DHT22;10402;49.012;8.370;2022-12-18T13:56:27;-2.20;90.20
20487;DHT22;10402;49.012;8.370;2022-12-18T13:59:14;-2.20;90.30
20487;DHT22;10402;49.012;8.370;2022-12-18T14:01:57;-2.10;90.30
20487;DHT22;10402;49.012;8.370;2022-12-18T14:04:27;-2.10;90.30
20487;DHT22;10402;49.012;8.370;2022-12-18T14:06:57;-2.10;90.10
20487;DHT22;10402;49.012;8.370;2022-12-18T14:09:30;-2.20;90.20
20487;DHT22;10402;49.012;8.370;2022-12-18T14:11:57;-2.20;90.20
20487;DHT22;10402;49.012;8.370;2022-12-18T14:14:45;-2.10;90.40
20487;DHT22;10402;49.012;8.370;2022-12-18T14:17:13;-2.10;90.40
20487;DHT22;10402;49.012;8.370;2022-12-18T14:19:45;-2.00;90.30
20487;DHT22;10402;49.012;8.370;2022-12-18T14:22:20;-2.00;90.20
20487;DHT22;10402;49.012;8.370;2022-12-18T14:24:46;-2.10;90.10
20487;DHT22;10402;49.012;8.370;2022-12-18T14:27:24;-2.10;90.30
20487;DHT22;10402;49.012;8.370;2022-12-18T14:29:50;-2.20;90.20
20487;DHT22;10402;49.012;8.370;2022-12-18T14:32:18;-2.20;90.30
20487;DHT22;10402;49.012;8.370;2022-12-18T14:34:49;-2.20;90.40
20487;DHT22;10402;49.012;8.370;2022-12-18T14:37:17;-2.30;90.30
20487;DHT22;10402;49.012;8.370;2022-12-18T14:39:59;-2.30;90.60
20487;DHT22;10402;49.012;8.370;2022-12-18T14:42:26;-2.20;90.80
20487;DHT22;10402;49.012;8.370;2022-12-18T14:47:58;-2.10;90.60
20487;DHT22;10402;49.012;8.370;2022-12-18T14:50:24;-2.10;90.60
20487;DHT22;10402;49.012;8.370;2022-12-18T14:52:50;-2.10;90.60
20487;DHT22;10402;49.012;8.370;2022-12-18T14:55:20;-2.00;90.50
20487;DHT22;10402;49.012;8.370;2022-12-18T15:00:22;-2.10;90.20
20487;DHT22;10402;49.012;8.370;2022-12-18T15:02:55;-2.10;90.40
20487;DHT22;10402;49.012;8.370;2022-12-18T15:05:29;-2.10;90.60
20487;DHT22;10402;49.012;8.370;2022-12-18T15:07:57;-2.10;90.50
20487;DHT22;10402;49.012;8.370;2022-12-18T15:10:27;-2.10;90.60
20487;DHT22;10402;49.012;8.370;2022-12-18T15:20:56;-2.20;90.80
20487;DHT22;10402;49.012;8.370;2022-12-18T15:23:35;-2.20;90.80
20487;DHT22;10402;49.012;8.370;2022-12-18T15:26:04;-2.10;90.90
20487;DHT22;10402;49.012;8.370;2022-12-18T15:28:45;-2.10;90.90
20487;DHT22;10402;49.012;8.370;2022-12-18T15:33:42;-2.10;91.20
20487;DHT22;10402;49.012;8.370;2022-12-18T15:36:14;-2.10;90.70
20487;DHT22;10402;49.012;8.370;2022-12-18T15:38:40;-2.20;90.60
20487;DHT22;10402;49.012;8.370;2022-12-18T15:41:05;-2.30;90.60
20487;DHT22;10402;49.012;8.370;2022-12-18T15:43:31;-2.40;90.70
20487;DHT22;10402;49.012;8.370;2022-12-18T15:46:01;-2.40;91.00
20487;DHT22;10402;49.012;8.370;2022-12-18T15:48:27;-2.40;91.20
20487;DHT22;10402;49.012;8.370;2022-12-18T15:50:55;-2.40;91.20
20487;DHT22;10402;49.012;8.370;2022-12-18T15:53:22;-2.40;91.20
20487;DHT22;10402;49.012;8.370;2022-12-18T15:55:48;-2.40;91.20
20487;DHT22;10402;49.012;8.370;2022-12-18T15:58:32;-2.30;91.20
20487;DHT22;10402;49.012;8.370;2022-12-18T16:00:59;-2.30;91.10
20487;DHT22;10402;49.012;8.370;2022-12-18T16:03:25;-2.30;91.20
20487;DHT22;10402;49.012;8.370;2022-12-18T16:05:51;-2.20;91.30
20487;DHT22;10402;49.012;8.370;2022-12-18T16:08:16;-2.20;91.20
20487;DHT22;10402;49.012;8.370;2022-12-18T16:10:42;-2.10;91.20
20487;DHT22;10402;49.012;8.370;2022-12-18T16:13:12;-2.10;91.20
20487;DHT22;10402;49.012;8.370;2022-12-18T16:15:40;-2.10;91.20
20487;DHT22;10402;49.012;8.370;2022-12-18T16:18:06;-2.00;91.20
20487;DHT22;10402;49.012;8.370;2022-12-18T16:20:31;-2.00;91.10
20487;DHT22;10402;49.012;8.370;2022-12-18T16:22:57;-2.00;91.10
20487;DHT22;10402;49.012;8.370;2022-12-18T16:25:26;-1.90;91.10
20487;DHT22;10402;49.012;8.370;2022-12-18T16:27:53;-1.90;91.00
20487;DHT22;10402;49.012;8.370;2022-12-18T16:30:26;-2.00;91.00
20487;DHT22;10402;49.012;8.370;2022-12-18T16:32:53;-1.90;91.20
20487;DHT22;10402;49.012;8.370;2022-12-18T16:35:19;-1.90;91.10
20487;DHT22;10402;49.012;8.370;2022-12-18T16:37:45;-1.90;91.10
20487;DHT22;10402;49.012;8.370;2022-12-18T16:40:13;-1.90;91.10
20487;DHT22;10402;49.012;8.370;2022-12-18T16:42:40;-1.80;91.10
20487;DHT22;10402;49.012;8.370;2022-12-18T16:45:09;-1.80;91.10
20487;DHT22;10402;49.012;8.370;2022-12-18T16:47:35;-1.80;91.00
20487;DHT22;10402;49.012;8.370;2022-12-18T16:50:00;-1.80;91.00
20487;DHT22;10402;49.012;8.370;2022-12-18T16:52:26;-1.80;91.00
20487;DHT22;10402;49.012;8.370;2022-12-18T16:54:52;-1.80;91.40
20487;DHT22;10402;49.012;8.370;2022-12-18T16:57:19;-1.70;91.00
20487;DHT22;10402;49.012;8.370;2022-12-18T16:59:45;-1.80;91.00
20487;DHT22;10402;49.012;8.370;2022-12-18T17:02:13;-1.80;91.00
20487;DHT22;10402;49.012;8.370;2022-12-18T17:04:40;-1.80;91.00
20487;DHT22;10402;49.012;8.370;2022-12-18T17:07:06;-1.80;91.00
20487;DHT22;10402;49.012;8.370;2022-12-18T17:09:31;-1.80;91.00
20487;DHT22;10402;49.012;8.370;2022-12-18T17:11:57;-1.80;91.00
20487;DHT22;10402;49.012;8.370;2022-12-18T17:14:23;-1.80;91.10
20487;DHT22;10402;49.012;8.370;2022-12-18T17:16:50;-1.70;91.10
20487;DHT22;10402;49.012;8.370;2022-12-18T17:19:16;-1.70;91.00
20487;DHT22;10402;49.012;8.370;2022-12-18T17:21:42;-1.70;91.00
20487;DHT22;10402;49.012;8.370;2022-12-18T17:24:08;-1.70;91.00
20487;DHT22;10402;49.012;8.370;2022-12-18T17:26:34;-1.70;91.00